Archival Weather

Chicago O'Hare International

Chicago, Illinois (KORD)

Report from: Thursday, May 11, 2023 8:51 AM CDT
Current time: Sunday, February 25, 2024 4:40 PM CST

Current weather – Weather history – Daily summaries
Weather forecast

Temperature21.7°C (71.1°F)
Dew point7.2°C (45.0°F)
Winds 5 kts (2.6 m/s, 5.8 mph) South-Southeast (150°)
Visibility10 mi. (16.1 km)
Clouds Few clouds 13,000 ft. (3,962 m)
Ceiling: Broken clouds 30,000 ft. (9,144 m)
Altimeter30.11 in.Hg (1020 mB)
Relative humidity39 %
Density altitude723 ft. (220 m)
Sea-level pressure101.9 kPa (1019 mB, 30.10 in.Hg)
Remarks Automated weather observing station with precipitation discriminator
Flight conditions Visual Meteorological Conditions
Raw dataKORD 111351Z 15005KT 10SM FEW130 BKN300 22/07 A3011 RMK AO2 SLP194 T02170072
An error has occurred. This application may no longer respond until reloaded. Reload 🗙